createdAt,value
2023-07-24T00:00:42.544Z,2.33
2023-07-24T00:03:10.442Z,2.40
2023-07-24T00:05:39.480Z,2.43
2023-07-24T00:08:08.054Z,2.20
2023-07-24T00:10:36.312Z,2.50
2023-07-24T00:13:04.402Z,1.90
2023-07-24T00:15:32.300Z,2.20
2023-07-24T00:18:03.632Z,1.90
2023-07-24T00:20:37.599Z,2.30
2023-07-24T00:23:06.702Z,2.10
2023-07-24T00:25:34.352Z,2.10
2023-07-24T00:28:02.368Z,2.03
2023-07-24T00:30:30.068Z,2.43
2023-07-24T00:32:57.674Z,1.90
2023-07-24T00:35:25.593Z,2.00
2023-07-24T00:37:53.300Z,2.53
2023-07-24T00:40:22.630Z,2.30
2023-07-24T00:42:50.601Z,2.10
2023-07-24T00:45:18.457Z,2.07
2023-07-24T00:47:46.421Z,2.27
2023-07-24T00:50:14.676Z,1.90
2023-07-24T00:52:42.618Z,2.00
2023-07-24T00:55:11.394Z,2.23
2023-07-24T00:57:40.476Z,2.30
2023-07-24T01:00:09.313Z,2.30
2023-07-24T01:02:37.232Z,2.13
2023-07-24T01:05:05.798Z,2.20
2023-07-24T01:07:36.383Z,1.70
2023-07-24T01:10:04.153Z,1.70
2023-07-24T01:12:35.007Z,2.17
2023-07-24T01:15:09.767Z,2.47
2023-07-24T01:17:41.729Z,2.17
2023-07-24T01:20:11.088Z,2.17
2023-07-24T01:22:41.954Z,2.40
2023-07-24T01:25:13.483Z,2.20
2023-07-24T01:27:46.144Z,2.10
2023-07-24T01:30:15.314Z,2.20
2023-07-24T01:32:42.982Z,2.30
2023-07-24T01:35:10.756Z,2.20
2023-07-24T01:37:40.484Z,2.07
2023-07-24T01:40:09.320Z,2.23
2023-07-24T01:42:37.166Z,2.27
2023-07-24T01:45:07.397Z,2.20
2023-07-24T01:47:35.265Z,2.43
2023-07-24T01:50:03.228Z,2.83
2023-07-24T01:52:30.920Z,2.30
2023-07-24T01:54:58.585Z,2.43
2023-07-24T01:57:26.239Z,2.10
2023-07-24T01:59:53.930Z,2.20
2023-07-24T02:02:22.992Z,2.30
2023-07-24T02:04:50.642Z,2.50
2023-07-24T02:07:18.292Z,2.27
2023-07-24T02:09:47.168Z,2.47
2023-07-24T02:12:17.731Z,2.17
2023-07-24T02:14:45.435Z,2.30
2023-07-24T02:17:13.101Z,2.30
2023-07-24T02:19:42.076Z,2.33
2023-07-24T02:22:09.812Z,2.20
2023-07-24T02:24:37.511Z,2.30
2023-07-24T02:27:06.589Z,2.43
2023-07-24T02:29:34.313Z,2.10
2023-07-24T02:32:02.550Z,2.53
2023-07-24T02:34:30.280Z,2.50
2023-07-24T02:36:59.298Z,2.30
2023-07-24T02:39:27.089Z,2.40
2023-07-24T02:41:54.773Z,2.00
2023-07-24T02:44:22.381Z,2.20
2023-07-24T02:46:50.284Z,2.37
2023-07-24T02:49:17.940Z,2.23
2023-07-24T02:51:45.669Z,2.50
2023-07-24T02:54:14.663Z,2.50
2023-07-24T02:56:42.321Z,2.50
2023-07-24T02:59:09.975Z,2.47
2023-07-24T03:01:38.410Z,2.33
2023-07-24T03:04:06.673Z,2.40
2023-07-24T03:06:34.373Z,2.37
2023-07-24T03:09:02.085Z,2.13
2023-07-24T03:11:31.096Z,2.10
2023-07-24T03:13:58.740Z,2.10
2023-07-24T03:16:26.545Z,2.30
2023-07-24T03:18:54.286Z,2.03
2023-07-24T03:21:22.718Z,2.60
2023-07-24T03:23:50.352Z,2.37
2023-07-24T03:26:18.027Z,2.40
2023-07-24T03:28:47.079Z,2.30
2023-07-24T03:31:14.933Z,2.33
2023-07-24T03:33:42.739Z,2.20
2023-07-24T03:36:10.372Z,2.27
2023-07-24T03:38:37.993Z,2.60
2023-07-24T03:41:05.700Z,2.30
2023-07-24T03:43:33.364Z,2.60
2023-07-24T03:46:02.328Z,2.50
2023-07-24T03:48:30.094Z,2.27
2023-07-24T03:51:00.370Z,3.03
2023-07-24T03:53:28.130Z,2.53
2023-07-24T03:55:56.114Z,2.27
2023-07-24T03:58:23.794Z,2.77
2023-07-24T04:00:51.413Z,3.07
2023-07-24T04:03:20.490Z,2.93
2023-07-24T04:05:48.216Z,2.70
2023-07-24T04:08:15.853Z,2.73
2023-07-24T04:10:43.490Z,2.60
2023-07-24T04:13:11.163Z,2.90
2023-07-24T04:15:39.341Z,2.60
2023-07-24T04:18:09.207Z,2.87
2023-07-24T04:20:38.188Z,2.60
2023-07-24T04:23:05.940Z,2.53
2023-07-24T04:25:33.644Z,2.50
2023-07-24T04:28:01.272Z,2.50
2023-07-24T04:30:28.909Z,2.53
2023-07-24T04:32:56.817Z,2.63
2023-07-24T04:35:24.542Z,2.40
2023-07-24T04:37:53.557Z,2.50
2023-07-24T04:40:21.163Z,2.57
2023-07-24T04:42:48.807Z,2.57
2023-07-24T04:45:16.452Z,2.57
2023-07-24T04:47:44.627Z,2.50
2023-07-24T04:50:12.304Z,2.10
2023-07-24T04:52:40.010Z,2.13
2023-07-24T04:55:09.605Z,2.47
2023-07-24T04:57:37.222Z,2.50
2023-07-24T05:00:06.366Z,2.73
2023-07-24T05:02:34.177Z,2.60
2023-07-24T05:05:01.916Z,2.83
2023-07-24T05:07:29.550Z,2.60
2023-07-24T05:09:57.274Z,2.70
2023-07-24T05:12:26.307Z,2.70
2023-07-24T05:14:54.002Z,2.27
2023-07-24T05:17:21.686Z,2.80
2023-07-24T05:19:49.404Z,2.47
2023-07-24T05:22:17.118Z,2.60
2023-07-24T05:24:44.988Z,2.67
2023-07-24T05:27:13.511Z,2.60
2023-07-24T05:29:42.609Z,2.87
2023-07-24T05:32:13.096Z,2.60
2023-07-24T05:34:40.893Z,2.70
2023-07-24T05:37:08.480Z,2.87
2023-07-24T05:39:36.065Z,2.60
2023-07-24T05:42:04.492Z,2.70
2023-07-24T05:44:32.145Z,2.50
2023-07-24T05:47:01.161Z,2.70
2023-07-24T05:49:28.805Z,2.70
2023-07-24T05:51:57.636Z,2.80
2023-07-24T05:54:25.351Z,2.40
2023-07-24T05:56:54.500Z,2.23
2023-07-24T05:59:22.344Z,2.40
2023-07-24T06:01:49.963Z,2.33
2023-07-24T06:04:19.078Z,2.83
2023-07-24T06:06:46.821Z,2.40
2023-07-24T06:09:14.700Z,2.30
2023-07-24T06:11:42.406Z,3.00
2023-07-24T06:14:10.029Z,2.43
2023-07-24T06:16:38.287Z,2.43
2023-07-24T06:19:06.256Z,2.40
2023-07-24T06:21:35.599Z,2.50
2023-07-24T06:24:03.926Z,2.47
2023-07-24T06:26:32.497Z,2.60
2023-07-24T06:29:00.884Z,2.50
2023-07-24T06:31:28.797Z,2.30
2023-07-24T06:33:57.117Z,2.80
2023-07-24T06:36:24.867Z,2.47
2023-07-24T06:38:53.950Z,2.40
2023-07-24T06:41:23.970Z,2.73
2023-07-24T06:43:54.321Z,2.87
2023-07-24T06:46:22.021Z,2.50
2023-07-24T06:48:50.002Z,2.40
2023-07-24T06:51:17.866Z,2.50
2023-07-24T06:53:45.510Z,2.20
2023-07-24T06:56:14.896Z,2.70
2023-07-24T06:58:42.737Z,2.50
2023-07-24T07:01:10.604Z,2.73
2023-07-24T07:03:38.869Z,2.47
2023-07-24T07:06:07.820Z,2.33
2023-07-24T07:08:36.415Z,2.90
2023-07-24T07:11:04.438Z,2.90
2023-07-24T07:13:33.640Z,2.90
2023-07-24T07:16:01.882Z,2.63
2023-07-24T07:18:29.661Z,2.80
2023-07-24T07:20:57.520Z,2.90
2023-07-24T07:23:25.154Z,2.70
2023-07-24T07:25:53.273Z,3.43
2023-07-24T07:28:21.028Z,2.60
2023-07-24T07:30:50.204Z,2.80
2023-07-24T07:33:17.993Z,2.90
2023-07-24T07:35:45.826Z,2.90
2023-07-24T07:38:13.488Z,2.97
2023-07-24T07:40:41.193Z,2.77
2023-07-24T07:43:09.765Z,2.80
2023-07-24T07:45:37.472Z,3.10
2023-07-24T07:48:07.478Z,2.97
2023-07-24T07:50:35.111Z,3.10
2023-07-24T07:53:02.891Z,3.20
2023-07-24T07:55:30.956Z,2.80
2023-07-24T07:58:01.058Z,2.93
2023-07-24T08:00:29.009Z,3.00
2023-07-24T08:02:56.735Z,3.00
2023-07-24T08:05:25.790Z,3.03
2023-07-24T08:07:54.201Z,2.87
2023-07-24T08:10:22.440Z,2.77
2023-07-24T08:12:50.301Z,2.67
2023-07-24T08:15:18.483Z,2.53
2023-07-24T08:17:46.446Z,2.73
2023-07-24T08:20:14.327Z,2.73
2023-07-24T08:22:43.446Z,3.00
2023-07-24T08:25:11.447Z,2.67
2023-07-24T08:27:54.525Z,2.70
2023-07-24T08:30:27.418Z,3.30
2023-07-24T08:32:55.458Z,2.70
2023-07-24T08:35:23.576Z,2.33
2023-07-24T08:37:52.820Z,2.87
2023-07-24T08:40:20.728Z,2.60
2023-07-24T08:42:51.442Z,2.37
2023-07-24T08:45:20.331Z,2.20
2023-07-24T08:47:48.354Z,2.60
2023-07-24T08:50:16.713Z,2.37
2023-07-24T08:52:46.108Z,2.60
2023-07-24T08:55:15.779Z,2.70
2023-07-24T08:57:43.643Z,2.37
2023-07-24T09:00:12.804Z,2.93
2023-07-24T09:02:40.881Z,2.70
2023-07-24T09:05:10.116Z,2.80
2023-07-24T09:07:38.714Z,2.90
2023-07-24T09:10:10.102Z,2.80
2023-07-24T09:12:42.362Z,2.57
2023-07-24T09:15:13.035Z,2.40
2023-07-24T09:17:50.019Z,2.73
2023-07-24T09:20:31.410Z,2.83
2023-07-24T09:25:33.947Z,3.23
2023-07-24T09:28:03.554Z,2.80
2023-07-24T09:30:31.633Z,2.93
2023-07-24T09:32:59.980Z,2.80
2023-07-24T09:35:29.515Z,2.87
2023-07-24T09:38:04.734Z,2.93
2023-07-24T09:40:41.735Z,3.40
2023-07-24T09:43:34.074Z,2.77
2023-07-24T09:46:07.085Z,2.87
2023-07-24T09:51:06.502Z,3.50
2023-07-24T09:53:36.837Z,3.20
2023-07-24T09:56:06.378Z,3.33
2023-07-24T09:58:38.072Z,3.60
2023-07-24T10:01:07.459Z,3.38
2023-07-24T10:03:36.894Z,3.67
2023-07-24T10:06:05.235Z,4.07
2023-07-24T10:08:33.770Z,3.42
2023-07-24T10:11:01.491Z,3.65
2023-07-24T10:13:30.308Z,3.50
2023-07-24T10:15:59.760Z,4.15
2023-07-24T10:18:29.632Z,4.03
2023-07-24T10:21:02.591Z,3.88
2023-07-24T10:23:30.442Z,3.37
2023-07-24T10:26:04.781Z,3.72
2023-07-24T10:28:33.564Z,3.58
2023-07-24T10:31:03.476Z,4.07
2023-07-24T10:33:33.541Z,4.07
2023-07-24T10:36:10.841Z,3.33
2023-07-24T10:38:40.272Z,4.10
2023-07-24T10:41:09.843Z,3.65
2023-07-24T10:43:47.948Z,3.40
2023-07-24T10:46:20.065Z,3.60
2023-07-24T10:48:49.505Z,4.07
2023-07-24T10:51:17.385Z,3.70
2023-07-24T10:53:48.075Z,3.08
2023-07-24T10:56:16.586Z,4.07
2023-07-24T10:58:44.557Z,3.67
2023-07-24T11:01:12.536Z,4.05
2023-07-24T11:03:42.957Z,4.05
2023-07-24T11:06:17.445Z,3.50
2023-07-24T11:08:53.120Z,3.67
2023-07-24T11:11:20.942Z,3.65
2023-07-24T11:13:48.575Z,3.55
2023-07-24T11:16:16.235Z,3.70
2023-07-24T11:18:54.637Z,3.70
2023-07-24T11:21:24.518Z,3.78
2023-07-24T11:23:53.584Z,3.67
2023-07-24T11:26:22.583Z,3.58
2023-07-24T11:28:51.194Z,3.63
2023-07-24T11:31:21.093Z,3.25
2023-07-24T11:33:50.958Z,3.30
2023-07-24T11:36:18.993Z,3.45
2023-07-24T11:38:46.981Z,3.38
2023-07-24T11:41:15.036Z,3.33
2023-07-24T11:43:48.772Z,3.15
2023-07-24T11:46:25.684Z,3.53
2023-07-24T11:48:57.625Z,2.92
2023-07-24T11:51:26.991Z,3.45
2023-07-24T11:53:54.857Z,3.40
2023-07-24T11:56:23.695Z,4.15
2023-07-24T11:58:51.759Z,3.20
2023-07-24T12:01:19.461Z,3.30
2023-07-24T12:03:49.081Z,2.85
2023-07-24T12:06:18.700Z,3.10
2023-07-24T12:08:46.630Z,3.10
2023-07-24T12:11:20.547Z,3.50
2023-07-24T12:13:48.306Z,3.38
2023-07-24T12:16:16.075Z,3.50
2023-07-24T12:18:43.784Z,3.15
2023-07-24T12:21:11.449Z,3.50
2023-07-24T12:23:40.495Z,3.10
2023-07-24T12:26:08.383Z,3.58
2023-07-24T12:28:36.551Z,3.05
2023-07-24T12:31:05.458Z,3.35
2023-07-24T12:33:33.884Z,3.13
2023-07-24T12:36:02.678Z,3.03
2023-07-24T12:38:37.539Z,3.42
2023-07-24T12:41:06.507Z,3.10
2023-07-24T12:43:34.114Z,3.50
2023-07-24T12:46:02.027Z,3.15
2023-07-24T12:48:32.574Z,3.40
2023-07-24T12:51:01.230Z,3.58
2023-07-24T12:53:32.627Z,3.20
2023-07-24T12:56:06.055Z,3.53
2023-07-24T12:58:33.678Z,3.50
2023-07-24T13:01:01.359Z,3.85
2023-07-24T13:03:29.206Z,3.17
2023-07-24T13:05:56.940Z,3.20
2023-07-24T13:08:24.832Z,3.10
2023-07-24T13:10:52.898Z,3.08
2023-07-24T13:13:22.045Z,3.20
2023-07-24T13:15:50.235Z,2.50
2023-07-24T13:18:27.882Z,3.08
2023-07-24T13:20:56.666Z,2.92
2023-07-24T13:23:24.518Z,3.60
2023-07-24T13:25:54.381Z,3.60
2023-07-24T13:28:23.405Z,4.10
2023-07-24T13:30:51.051Z,4.47
2023-07-24T13:33:18.860Z,3.67
2023-07-24T13:35:46.645Z,4.10
2023-07-24T13:38:15.378Z,3.83
2023-07-24T13:40:43.099Z,3.78
2023-07-24T13:43:10.850Z,3.05
2023-07-24T13:45:40.050Z,3.30
2023-07-24T13:48:07.877Z,3.15
2023-07-24T13:50:35.627Z,4.00
2023-07-24T13:53:03.316Z,3.05
2023-07-24T13:55:31.105Z,2.65
2023-07-24T13:57:58.767Z,3.00
2023-07-24T14:00:26.361Z,3.10
2023-07-24T14:02:55.456Z,3.05
2023-07-24T14:05:23.256Z,3.00
2023-07-24T14:07:50.903Z,2.80
2023-07-24T14:10:18.720Z,2.83
2023-07-24T14:12:47.536Z,2.75
2023-07-24T14:15:15.264Z,3.03
2023-07-24T14:17:43.003Z,2.72
2023-07-24T14:20:13.165Z,3.00
2023-07-24T14:22:40.825Z,2.92
2023-07-24T14:25:09.292Z,2.50
2023-07-24T14:27:36.946Z,2.63
2023-07-24T14:30:05.364Z,2.00
2023-07-24T14:32:33.154Z,1.80
2023-07-24T14:35:00.849Z,2.00
2023-07-24T14:37:29.817Z,2.08
2023-07-24T14:39:57.429Z,2.20
2023-07-24T14:42:25.097Z,2.60
2023-07-24T14:44:52.726Z,2.42
2023-07-24T14:47:20.381Z,2.47
2023-07-24T14:49:48.007Z,2.40
2023-07-24T14:52:15.716Z,2.08
2023-07-24T14:54:44.690Z,2.40
2023-07-24T14:57:24.133Z,3.00
2023-07-24T14:59:52.916Z,2.70
2023-07-24T15:02:20.842Z,2.22
2023-07-24T15:04:48.828Z,2.30
2023-07-24T15:07:16.799Z,1.90
2023-07-24T15:09:46.045Z,2.08
2023-07-24T15:12:13.724Z,1.90
2023-07-24T15:14:41.561Z,2.20
2023-07-24T15:17:09.226Z,1.93
2023-07-24T15:19:36.889Z,1.47
2023-07-24T15:22:04.732Z,1.10
2023-07-24T15:24:34.085Z,1.07
2023-07-24T15:27:09.170Z,1.33
2023-07-24T15:29:37.418Z,1.50
2023-07-24T15:32:06.576Z,1.30
2023-07-24T15:34:37.250Z,1.00
2023-07-24T15:37:06.979Z,1.00
2023-07-24T15:39:35.643Z,1.10
2023-07-24T15:42:05.296Z,1.00
2023-07-24T15:44:36.405Z,1.07
2023-07-24T15:47:04.359Z,1.00
2023-07-24T15:49:32.116Z,1.00
2023-07-24T15:51:59.919Z,1.10
2023-07-24T15:54:27.702Z,1.10
2023-07-24T15:56:55.357Z,1.00
2023-07-24T15:59:24.483Z,1.10
2023-07-24T16:01:52.452Z,1.23
2023-07-24T16:04:22.643Z,1.10
2023-07-24T16:06:50.525Z,1.40
2023-07-24T16:09:18.641Z,1.00
2023-07-24T16:11:47.230Z,1.30
2023-07-24T16:14:15.734Z,1.50
2023-07-24T16:16:45.064Z,1.40
2023-07-24T16:19:16.053Z,1.40
2023-07-24T16:21:45.788Z,1.60
2023-07-24T16:24:13.888Z,1.67
2023-07-24T16:26:42.196Z,1.57
2023-07-24T16:29:11.166Z,1.97
2023-07-24T16:31:39.926Z,1.90
2023-07-24T16:34:09.255Z,1.70
2023-07-24T16:36:37.408Z,1.53
2023-07-24T16:39:06.798Z,1.43
2023-07-24T16:41:35.391Z,1.60
2023-07-24T16:44:03.576Z,1.90
2023-07-24T16:46:31.771Z,1.90
2023-07-24T16:48:59.475Z,1.50
2023-07-24T16:51:28.824Z,1.80
2023-07-24T16:53:56.770Z,1.63
2023-07-24T16:56:24.729Z,1.67
2023-07-24T16:58:52.745Z,1.67
2023-07-24T17:01:20.989Z,1.57
2023-07-24T17:03:50.292Z,1.70
2023-07-24T17:06:18.310Z,1.80
2023-07-24T17:08:47.918Z,1.53
2023-07-24T17:11:17.488Z,1.50
2023-07-24T17:13:45.429Z,1.40
2023-07-24T17:16:13.589Z,1.50
2023-07-24T17:18:41.860Z,1.70
2023-07-24T17:21:09.725Z,1.60
2023-07-24T17:23:37.590Z,2.13
2023-07-24T17:26:06.518Z,1.60
2023-07-24T17:28:34.207Z,1.73
2023-07-24T17:31:02.009Z,1.80
2023-07-24T17:33:29.768Z,1.93
2023-07-24T17:35:57.395Z,1.80
2023-07-24T17:38:25.207Z,1.87
2023-07-24T17:40:52.942Z,1.63
2023-07-24T17:43:22.915Z,1.53
2023-07-24T17:45:50.685Z,1.60
2023-07-24T17:48:18.442Z,1.40
2023-07-24T17:50:46.561Z,1.50
2023-07-24T17:53:14.260Z,1.70
2023-07-24T17:55:41.983Z,1.30
2023-07-24T17:58:09.658Z,1.10
2023-07-24T18:00:41.568Z,1.67
2023-07-24T18:03:09.402Z,1.67
2023-07-24T18:05:37.131Z,1.40
2023-07-24T18:08:05.159Z,1.50
2023-07-24T18:10:33.205Z,1.40
2023-07-24T18:13:00.906Z,1.47
2023-07-24T18:15:28.609Z,1.40
2023-07-24T18:17:57.816Z,1.47
2023-07-24T18:20:25.628Z,1.40
2023-07-24T18:22:53.984Z,1.33
2023-07-24T18:25:21.889Z,1.60
2023-07-24T18:27:49.772Z,1.50
2023-07-24T18:30:17.542Z,1.47
2023-07-24T18:32:45.247Z,1.50
2023-07-24T18:35:14.312Z,1.27
2023-07-24T18:37:42.014Z,1.37
2023-07-24T18:40:10.737Z,1.20
2023-07-24T18:42:38.397Z,1.20
2023-07-24T18:45:06.930Z,1.60
2023-07-24T18:47:35.175Z,1.27
2023-07-24T18:50:02.945Z,1.20
2023-07-24T18:52:31.937Z,1.40
2023-07-24T18:55:00.350Z,1.27
2023-07-24T18:57:28.003Z,1.50
2023-07-24T18:59:55.633Z,1.60
2023-07-24T19:02:23.386Z,1.50
2023-07-24T19:04:51.154Z,1.50
2023-07-24T19:07:18.836Z,1.30
2023-07-24T19:09:47.824Z,1.20
2023-07-24T19:12:17.344Z,1.30
2023-07-24T19:14:44.947Z,1.10
2023-07-24T19:17:12.968Z,1.30
2023-07-24T19:19:40.719Z,1.43
2023-07-24T19:22:08.606Z,1.30
2023-07-24T19:24:36.465Z,1.40
2023-07-24T19:27:06.460Z,1.50
2023-07-24T19:29:35.559Z,1.30
2023-07-24T19:32:03.250Z,1.43
2023-07-24T19:34:30.934Z,1.33
2023-07-24T19:36:58.596Z,1.53
2023-07-24T19:39:26.238Z,1.30
2023-07-24T19:41:53.855Z,1.43
2023-07-24T19:44:22.824Z,1.30
2023-07-24T19:46:50.446Z,1.30
2023-07-24T19:49:18.048Z,1.30
2023-07-24T19:51:45.750Z,1.50
2023-07-24T19:54:13.409Z,1.30
2023-07-24T19:56:41.179Z,1.40
2023-07-24T19:59:08.820Z,1.40
2023-07-24T20:01:38.092Z,1.50
2023-07-24T20:04:06.089Z,1.60
2023-07-24T20:06:34.577Z,1.50
2023-07-24T20:09:02.336Z,1.50
2023-07-24T20:11:30.120Z,1.60
2023-07-24T20:13:58.038Z,1.57
2023-07-24T20:16:25.689Z,1.77
2023-07-24T20:18:54.724Z,1.50
2023-07-24T20:21:23.155Z,1.47
2023-07-24T20:23:51.191Z,1.50
2023-07-24T20:26:19.076Z,1.50
2023-07-24T20:28:47.053Z,1.50
2023-07-24T20:31:14.972Z,1.53
2023-07-24T20:33:42.579Z,1.60
2023-07-24T20:36:13.705Z,1.50
2023-07-24T20:38:41.462Z,1.40
2023-07-24T20:41:09.206Z,1.30
2023-07-24T20:43:36.867Z,1.53
2023-07-24T20:46:12.070Z,1.63
2023-07-24T20:48:40.005Z,1.37
2023-07-24T20:51:17.464Z,1.60
2023-07-24T20:53:45.247Z,1.50
2023-07-24T20:56:13.442Z,1.30
2023-07-24T20:58:41.285Z,1.63
2023-07-24T21:01:09.306Z,1.60
2023-07-24T21:03:37.088Z,1.30
2023-07-24T21:06:05.100Z,1.00
2023-07-24T21:08:34.208Z,1.60
2023-07-24T21:11:01.942Z,1.50
2023-07-24T21:13:29.660Z,1.80
2023-07-24T21:15:57.353Z,1.70
2023-07-24T21:18:25.065Z,1.50
2023-07-24T21:20:52.824Z,1.30
2023-07-24T21:23:20.758Z,1.40
2023-07-24T21:25:55.812Z,1.30
2023-07-24T21:28:23.612Z,1.43
2023-07-24T21:30:51.985Z,1.50
2023-07-24T21:33:19.899Z,1.47
2023-07-24T21:35:47.661Z,1.50
2023-07-24T21:38:15.295Z,1.60
2023-07-24T21:40:46.117Z,1.47
2023-07-24T21:43:15.092Z,1.50
2023-07-24T21:45:44.184Z,1.60
2023-07-24T21:48:13.008Z,1.53
2023-07-24T21:50:41.531Z,1.37
2023-07-24T21:53:09.689Z,1.57
2023-07-24T21:55:40.073Z,1.60
2023-07-24T21:58:08.171Z,1.40
2023-07-24T22:00:37.903Z,1.40
2023-07-24T22:03:05.979Z,1.60
2023-07-24T22:05:33.723Z,1.30
2023-07-24T22:08:01.442Z,1.40
2023-07-24T22:10:29.460Z,1.17
2023-07-24T22:12:57.415Z,1.63
2023-07-24T22:15:25.363Z,1.40
2023-07-24T22:17:54.493Z,1.27
2023-07-24T22:22:54.185Z,1.70
2023-07-24T22:25:22.105Z,1.67
2023-07-24T22:27:50.519Z,1.27
2023-07-24T22:30:18.350Z,1.43
2023-07-24T22:32:46.743Z,1.40
2023-07-24T22:35:16.231Z,1.23
2023-07-24T22:37:44.080Z,1.37
2023-07-24T22:40:13.019Z,1.50
2023-07-24T22:42:40.690Z,1.50
2023-07-24T22:45:08.963Z,1.37
2023-07-24T22:47:36.790Z,1.43
2023-07-24T22:50:05.696Z,1.40
2023-07-24T22:52:35.210Z,1.20
2023-07-24T22:55:03.346Z,1.30
2023-07-24T22:57:31.329Z,1.30
2023-07-24T22:59:59.361Z,1.70
2023-07-24T23:02:27.860Z,1.43
2023-07-24T23:04:55.641Z,1.50
2023-07-24T23:07:22.345Z,1.40
2023-07-24T23:09:51.335Z,1.30
2023-07-24T23:12:19.075Z,1.53
2023-07-24T23:14:46.857Z,1.60
2023-07-24T23:17:14.516Z,1.53
2023-07-24T23:19:42.313Z,1.50
2023-07-24T23:22:10.065Z,1.43
2023-07-24T23:24:37.814Z,1.63
2023-07-24T23:27:07.295Z,1.57
2023-07-24T23:29:35.002Z,1.53
2023-07-24T23:32:02.661Z,1.33
2023-07-24T23:34:30.694Z,1.50
2023-07-24T23:36:58.374Z,1.37
2023-07-24T23:39:26.029Z,1.47
2023-07-24T23:41:53.998Z,1.60
2023-07-24T23:44:22.979Z,1.57
2023-07-24T23:46:50.634Z,1.73
2023-07-24T23:49:18.318Z,1.70
2023-07-24T23:51:45.999Z,1.43
2023-07-24T23:54:13.726Z,1.70
2023-07-24T23:56:41.437Z,1.40
2023-07-24T23:59:09.206Z,1.90
